This is the latest recevied weather packets stored in our database for station/object EA4IAJ-12. If no packets are shown the sender has not sent any weather packets the latest 10 day(s).
| Time | Temp. | Humidity | Pressure | Rain* | Wind** | Luminosity | Snow |
|---|---|---|---|---|---|---|---|
| 1787806280 | 16.67° C | 100% | 1001.2 hPa | - | - | - | - |
| 1787805522 | 16.67° C | 100% | 1000.8 hPa | - | - | - | - |
| 1787805380 | 16.67° C | 100% | 1000.8 hPa | - | - | - | - |
| 1787804479 | 17.22° C | 100% | 1001.4 hPa | - | - | - | - |
| 1787803578 | 17.78° C | 100% | 1003 hPa | - | - | - | - |
| 1787802690 | 17.22° C | 100% | 1002.3 hPa | - | - | - | - |
| 1787801790 | 17.22° C | 100% | 1001.4 hPa | - | - | - | - |
| 1787801102 | 17.22° C | 100% | 1001.1 hPa | - | - | - | - |
| 1787800889 | 17.22° C | 100% | 1001.1 hPa | - | - | - | - |
| 1787799988 | 17.22° C | 100% | 1001.7 hPa | - | - | - | - |
| 1787799088 | 17.22° C | 100% | 1001.3 hPa | - | - | - | - |
| 1787798187 | 17.22° C | 100% | 1000.2 hPa | - | - | - | - |
| 1787797287 | 17.78° C | 100% | 1001.3 hPa | - | - | - | - |
| 1787796386 | 17.78° C | 100% | 1001.9 hPa | - | - | - | - |
| 1787794585 | 18.33° C | 100% | 1003.3 hPa | - | - | - | - |
| 1787792784 | 18.33° C | 100% | 1002.7 hPa | - | - | - | - |
| 1787790983 | 18.33° C | 94% | 1000.9 hPa | - | - | - | - |
| 1787789182 | 18.33° C | 85% | 1000.4 hPa | - | - | - | - |
| 1787788281 | 18.89° C | 80% | 1001.5 hPa | - | - | - | - |
| 1787787381 | 18.89° C | 75% | 1001.5 hPa | - | - | - | - |
| 1787786480 | 18.89° C | 70% | 1002.2 hPa | - | - | - | - |
| 1787785580 | 19.44° C | 65% | 1002.3 hPa | - | - | - | - |
| 1787784679 | 19.44° C | 60% | 1002.5 hPa | - | - | - | - |
| 1787783778 | 19.44° C | 56% | 1002.4 hPa | - | - | - | - |
| 1787782878 | 20° C | 52% | 1003.8 hPa | - | - | - | - |
* Rain since midnight (hover to see other rain measurements)
** Current wind speed in m/s (hover to see current wind gust speed)